Time;durP1;ratioP1;P1;durP2;ratioP2;P2;SDS_P1;SDS_P2;PMS_P1;PMS_P2;Temp;Humidity;BMP_temperature;BMP_pressure;BME280_temperature;BME280_humidity;BME280_pressure;Samples;Min_cycle;Max_cycle;Signal;HPM_P1;HPM_P2
2023/03/09 00:00:40;;;;;;;9.37;4.97;;;;;;;;;;5010860;28;20065;-79
2023/03/09 00:03:15;;;;;;;9.03;4.17;;;;;;;;;;5012422;28;20505;-79
2023/03/09 00:05:51;;;;;;;9.30;4.00;;;;;;;;;;5011184;28;20080;-79
2023/03/09 00:08:17;;;;;;;5.20;4.10;;;;;;;;;;5011593;28;20117;-78
2023/03/09 00:10:42;;;;;;;7.03;3.50;;;;;;;;;;5010921;28;20030;-80
2023/03/09 00:13:08;;;;;;;7.30;3.60;;;;;;;;;;5012393;28;20097;-78
2023/03/09 00:15:34;;;;;;;5.40;3.53;;;;;;;;;;5011175;28;20041;-81
2023/03/09 00:17:59;;;;;;;6.80;3.03;;;;;;;;;;5011638;28;20522;-79
2023/03/09 00:20:25;;;;;;;5.87;3.50;;;;;;;;;;5013800;28;20036;-77
2023/03/09 00:22:53;;;;;;;6.97;3.13;;;;;;;;;;5011005;28;20382;-77
2023/03/09 00:25:21;;;;;;;4.50;2.70;;;;;;;;;;5013066;28;20037;-78
2023/03/09 00:27:51;;;;;;;5.90;3.37;;;;;;;;;;4994751;28;20233;-78
2023/03/09 00:30:19;;;;;;;4.70;3.43;;;;;;;;;;5012682;28;20037;-78
2023/03/09 00:32:45;;;;;;;3.90;2.80;;;;;;;;;;4995949;28;20029;-78
2023/03/09 00:35:11;;;;;;;4.80;3.40;;;;;;;;;;4996527;28;20454;-77
2023/03/09 00:37:42;;;;;;;3.43;2.40;;;;;;;;;;5003008;28;20056;-78
2023/03/09 00:40:10;;;;;;;7.07;3.22;;;;;;;;;;4996609;28;20055;-78
2023/03/09 00:42:41;;;;;;;4.97;3.13;;;;;;;;;;5004314;28;20069;-78
2023/03/09 00:45:07;;;;;;;6.57;3.90;;;;;;;;;;5013425;28;20079;-78
2023/03/09 00:47:33;;;;;;;4.97;3.00;;;;;;;;;;5011141;28;20106;-78
2023/03/09 00:49:58;;;;;;;5.20;3.10;;;;;;;;;;5012784;28;20482;-78
2023/03/09 00:52:24;;;;;;;5.30;3.50;;;;;;;;;;5011593;28;20021;-76
2023/03/09 00:54:53;;;;;;;4.27;2.90;;;;;;;;;;5011661;28;20038;-79
2023/03/09 00:57:22;;;;;;;5.30;3.40;;;;;;;;;;5012321;28;20025;-80
2023/03/09 00:59:48;;;;;;;6.27;2.83;;;;;;;;;;5012324;28;20056;-80
2023/03/09 01:02:14;;;;;;;4.57;2.77;;;;;;;;;;5011636;28;20034;-78
2023/03/09 01:04:39;;;;;;;6.10;3.10;;;;;;;;;;5011698;28;20073;-79
2023/03/09 01:07:05;;;;;;;3.67;2.60;;;;;;;;;;5012049;28;20529;-77
2023/03/09 01:09:31;;;;;;;3.57;2.67;;;;;;;;;;5010546;28;20037;-78
2023/03/09 01:11:56;;;;;;;5.93;3.07;;;;;;;;;;5011411;28;20025;-78
2023/03/09 01:14:22;;;;;;;4.70;2.70;;;;;;;;;;5011811;28;20030;-77
2023/03/09 01:16:47;;;;;;;4.53;3.07;;;;;;;;;;5010671;28;20803;-78
2023/03/09 01:19:13;;;;;;;3.67;2.97;;;;;;;;;;5012095;28;20042;-78
2023/03/09 01:21:39;;;;;;;3.10;2.30;;;;;;;;;;5011085;28;20454;-78
2023/03/09 01:24:05;;;;;;;3.70;2.00;;;;;;;;;;5011406;28;20088;-78
2023/03/09 01:26:30;;;;;;;3.00;2.40;;;;;;;;;;5011487;28;20388;-78
2023/03/09 01:28:56;;;;;;;6.07;2.27;;;;;;;;;;5010804;28;20128;-78
2023/03/09 01:31:21;;;;;;;4.37;2.83;;;;;;;;;;5011691;28;20521;-78
2023/03/09 01:33:48;;;;;;;5.10;2.90;;;;;;;;;;5010286;28;20025;-79
2023/03/09 01:36:16;;;;;;;5.57;3.30;;;;;;;;;;5009577;28;20033;-77
2023/03/09 01:38:42;;;;;;;4.30;2.70;;;;;;;;;;5010346;28;20022;-78
2023/03/09 01:41:09;;;;;;;2.87;2.37;;;;;;;;;;5011126;28;20124;-78
2023/03/09 01:43:39;;;;;;;4.00;2.30;;;;;;;;;;5009877;28;20064;-78
2023/03/09 01:46:24;;;;;;;4.68;2.10;;;;;;;;;;5012156;28;20057;-78
2023/03/09 01:48:52;;;;;;;2.50;2.20;;;;;;;;;;5010599;28;20038;-78
2023/03/09 01:51:24;;;;;;;3.43;2.30;;;;;;;;;;5010360;28;20030;-78
2023/03/09 01:53:51;;;;;;;3.20;2.27;;;;;;;;;;5009391;28;20485;-78
2023/03/09 01:56:19;;;;;;;4.47;2.67;;;;;;;;;;5010376;28;20040;-78
2023/03/09 01:58:45;;;;;;;4.23;1.97;;;;;;;;;;5008769;28;20434;-77
2023/03/09 02:01:11;;;;;;;3.23;1.87;;;;;;;;;;5010856;28;20103;-78
2023/03/09 02:03:41;;;;;;;3.20;1.57;;;;;;;;;;5009423;28;20041;-77
2023/03/09 02:06:14;;;;;;;2.40;1.60;;;;;;;;;;5010370;28;20064;-78
2023/03/09 02:08:48;;;;;;;5.33;1.80;;;;;;;;;;5011690;28;20040;-78
2023/03/09 02:11:13;;;;;;;2.57;1.97;;;;;;;;;;5010392;28;20033;-80
2023/03/09 02:13:46;;;;;;;1.50;1.33;;;;;;;;;;5010365;28;20461;-79
2023/03/09 02:16:11;;;;;;;3.73;1.60;;;;;;;;;;5010943;28;20026;-77
2023/03/09 02:18:38;;;;;;;1.50;1.40;;;;;;;;;;5009934;28;20083;-79
2023/03/09 02:21:20;;;;;;;4.00;1.37;;;;;;;;;;5009893;28;20032;-79
2023/03/09 02:23:55;;;;;;;2.03;1.38;;;;;;;;;;5010127;28;20068;-78
2023/03/09 02:26:20;;;;;;;2.60;1.43;;;;;;;;;;5011989;28;20029;-79
2023/03/09 02:28:46;;;;;;;2.43;1.33;;;;;;;;;;5010129;28;20393;-78
2023/03/09 02:31:13;;;;;;;1.90;1.40;;;;;;;;;;5010262;28;20474;-78
2023/03/09 02:33:39;;;;;;;2.93;1.40;;;;;;;;;;5009517;28;20025;-79
2023/03/09 02:36:05;;;;;;;5.23;1.47;;;;;;;;;;5009351;28;20498;-78
2023/03/09 02:38:30;;;;;;;4.50;1.60;;;;;;;;;;5006194;28;20022;-79
2023/03/09 02:40:58;;;;;;;5.93;1.60;;;;;;;;;;4991379;28;20058;-78
2023/03/09 02:43:28;;;;;;;2.13;1.63;;;;;;;;;;5000314;28;20493;-78
2023/03/09 02:45:54;;;;;;;2.23;1.60;;;;;;;;;;5005315;28;20572;-79
2023/03/09 02:48:19;;;;;;;5.67;2.70;;;;;;;;;;5001666;28;20029;-78
2023/03/09 02:50:45;;;;;;;3.97;1.80;;;;;;;;;;4993840;28;20026;-79
2023/03/09 02:53:11;;;;;;;3.33;1.43;;;;;;;;;;5000037;28;20053;-78
2023/03/09 02:55:36;;;;;;;2.43;1.53;;;;;;;;;;5009161;28;20030;-78
2023/03/09 02:58:02;;;;;;;2.10;1.47;;;;;;;;;;5009608;28;20121;-80
2023/03/09 03:00:28;;;;;;;4.30;1.80;;;;;;;;;;5010096;28;20034;-77
2023/03/09 03:02:54;;;;;;;2.00;1.40;;;;;;;;;;5007980;28;20030;-77
2023/03/09 03:05:20;;;;;;;2.27;1.80;;;;;;;;;;5010791;28;20022;-77
2023/03/09 03:07:46;;;;;;;3.47;1.70;;;;;;;;;;5009811;28;20080;-76
2023/03/09 03:10:11;;;;;;;1.87;1.50;;;;;;;;;;5009865;28;20026;-77
2023/03/09 03:12:37;;;;;;;3.77;1.70;;;;;;;;;;5010346;28;20030;-77
2023/03/09 03:15:04;;;;;;;2.53;1.43;;;;;;;;;;5009655;28;20113;-78
2023/03/09 03:17:29;;;;;;;2.80;1.53;;;;;;;;;;5010661;28;20048;-77
2023/03/09 03:19:55;;;;;;;2.73;1.67;;;;;;;;;;5008910;28;20026;-78
2023/03/09 03:22:20;;;;;;;3.17;1.43;;;;;;;;;;5013949;28;20030;-78
2023/03/09 03:24:46;;;;;;;3.10;1.50;;;;;;;;;;5013632;28;20034;-78
2023/03/09 03:27:11;;;;;;;2.47;1.63;;;;;;;;;;5013899;28;20037;-79
2023/03/09 03:29:37;;;;;;;1.60;0.90;;;;;;;;;;5012182;28;20049;-79
2023/03/09 03:32:03;;;;;;;2.17;1.67;;;;;;;;;;5011986;28;20111;-78
2023/03/09 03:34:29;;;;;;;3.00;1.47;;;;;;;;;;5012886;28;20073;-78
2023/03/09 03:36:54;;;;;;;3.33;1.70;;;;;;;;;;5013516;28;20441;-78
2023/03/09 03:39:20;;;;;;;2.50;1.47;;;;;;;;;;5004567;28;20399;-79
2023/03/09 03:41:46;;;;;;;2.53;1.53;;;;;;;;;;4992149;28;20386;-78
2023/03/09 03:44:11;;;;;;;2.57;1.27;;;;;;;;;;5006467;28;20512;-78
2023/03/09 03:46:37;;;;;;;2.60;1.30;;;;;;;;;;5011423;28;20026;-78
2023/03/09 03:49:02;;;;;;;3.30;1.50;;;;;;;;;;5012894;28;20425;-79
2023/03/09 03:51:28;;;;;;;1.93;1.50;;;;;;;;;;5013591;28;20030;-78
2023/03/09 03:53:53;;;;;;;3.33;1.37;;;;;;;;;;5013227;28;20537;-78
2023/03/09 03:56:19;;;;;;;3.13;2.00;;;;;;;;;;5012283;28;20026;-77
2023/03/09 03:58:45;;;;;;;3.67;1.50;;;;;;;;;;5010478;28;20057;-78
2023/03/09 04:01:10;;;;;;;2.50;1.83;;;;;;;;;;5011130;28;20104;-78
2023/03/09 04:03:36;;;;;;;1.87;1.63;;;;;;;;;;5011618;28;20034;-78
2023/03/09 04:06:04;;;;;;;4.47;1.43;;;;;;;;;;5012243;28;20101;-78
2023/03/09 04:08:31;;;;;;;4.43;1.87;;;;;;;;;;5011304;28;20041;-77
2023/03/09 04:10:57;;;;;;;1.80;1.30;;;;;;;;;;5010211;28;20030;-77
2023/03/09 04:13:23;;;;;;;5.57;1.50;;;;;;;;;;5012272;28;20029;-78
2023/03/09 04:15:48;;;;;;;1.90;1.30;;;;;;;;;;5012185;28;20455;-77
2023/03/09 04:18:14;;;;;;;1.77;1.17;;;;;;;;;;5012201;28;20033;-78
2023/03/09 04:20:41;;;;;;;3.60;1.80;;;;;;;;;;5011559;28;20026;-77
2023/03/09 04:23:07;;;;;;;3.73;1.80;;;;;;;;;;5012580;28;20037;-78
2023/03/09 04:25:33;;;;;;;5.10;2.10;;;;;;;;;;5012584;28;20034;-77
2023/03/09 04:27:58;;;;;;;2.80;1.93;;;;;;;;;;5012291;28;20033;-77
2023/03/09 04:30:24;;;;;;;1.77;1.40;;;;;;;;;;5011912;28;20335;-77
2023/03/09 04:32:50;;;;;;;3.20;1.63;;;;;;;;;;5011190;28;20688;-79
2023/03/09 04:35:16;;;;;;;1.97;1.53;;;;;;;;;;5012059;28;20018;-77
2023/03/09 04:37:43;;;;;;;1.70;1.33;;;;;;;;;;5012128;28;20018;-77
2023/03/09 04:40:09;;;;;;;2.93;2.07;;;;;;;;;;5012314;28;20512;-78
2023/03/09 04:42:35;;;;;;;2.33;1.60;;;;;;;;;;5012293;28;20022;-78
2023/03/09 04:45:00;;;;;;;2.40;1.50;;;;;;;;;;5010490;28;20043;-78
2023/03/09 04:47:26;;;;;;;4.20;1.50;;;;;;;;;;5012405;28;20022;-78
2023/03/09 04:49:51;;;;;;;3.20;1.43;;;;;;;;;;5011277;28;20033;-79
2023/03/09 04:52:17;;;;;;;4.43;2.00;;;;;;;;;;5012332;28;20026;-78
2023/03/09 04:54:42;;;;;;;3.50;1.90;;;;;;;;;;5011892;28;20114;-77
2023/03/09 04:57:08;;;;;;;5.03;1.77;;;;;;;;;;5011611;28;20096;-78
2023/03/09 04:59:33;;;;;;;4.23;2.27;;;;;;;;;;5010314;28;20041;-78
2023/03/09 05:01:59;;;;;;;2.90;1.60;;;;;;;;;;5011646;28;20358;-79
2023/03/09 05:04:24;;;;;;;6.30;2.47;;;;;;;;;;5010437;28;20095;-78
2023/03/09 05:06:50;;;;;;;5.63;1.47;;;;;;;;;;5010582;28;20021;-78
2023/03/09 05:09:16;;;;;;;2.70;1.33;;;;;;;;;;5011859;28;20034;-78
2023/03/09 05:11:42;;;;;;;2.23;1.10;;;;;;;;;;5011299;28;20032;-79
2023/03/09 05:14:08;;;;;;;2.93;0.80;;;;;;;;;;5010915;28;20034;-78
2023/03/09 05:16:33;;;;;;;1.43;0.63;;;;;;;;;;5010566;28;20113;-78
2023/03/09 05:18:59;;;;;;;1.63;0.83;;;;;;;;;;5010535;28;20079;-79
2023/03/09 05:21:25;;;;;;;2.97;0.40;;;;;;;;;;5011334;28;20258;-79
2023/03/09 05:23:50;;;;;;;2.83;0.97;;;;;;;;;;5010468;28;20026;-79
2023/03/09 05:26:16;;;;;;;3.73;0.50;;;;;;;;;;5011984;28;20377;-80
2023/03/09 05:28:41;;;;;;;3.50;0.90;;;;;;;;;;5012394;28;20024;-79
2023/03/09 05:31:09;;;;;;;1.53;0.80;;;;;;;;;;5010406;28;20094;-80
2023/03/09 05:33:35;;;;;;;1.27;0.90;;;;;;;;;;5012108;28;20044;-77
2023/03/09 05:36:00;;;;;;;3.07;0.63;;;;;;;;;;5010973;28;20474;-78
2023/03/09 05:38:26;;;;;;;2.20;1.00;;;;;;;;;;5010020;28;20025;-78
2023/03/09 05:40:51;;;;;;;1.20;0.70;;;;;;;;;;5009239;28;20116;-79
2023/03/09 05:43:17;;;;;;;3.43;1.00;;;;;;;;;;5010189;28;20084;-78
2023/03/09 05:45:42;;;;;;;1.83;0.97;;;;;;;;;;5009842;28;20116;-77
2023/03/09 05:48:08;;;;;;;2.50;0.80;;;;;;;;;;5009471;28;20032;-79
2023/03/09 05:50:33;;;;;;;1.77;0.90;;;;;;;;;;4998489;28;20719;-80
2023/03/09 05:52:59;;;;;;;7.17;1.07;;;;;;;;;;5008521;28;20090;-80
2023/03/09 05:55:26;;;;;;;3.43;1.03;;;;;;;;;;5011635;28;20088;-79
2023/03/09 05:57:52;;;;;;;1.23;1.00;;;;;;;;;;5005247;28;20426;-79
2023/03/09 06:00:18;;;;;;;1.10;0.80;;;;;;;;;;5024560;28;20044;-79
2023/03/09 06:02:44;;;;;;;1.13;0.70;;;;;;;;;;5007693;28;20025;-78
2023/03/09 06:05:09;;;;;;;1.33;0.70;;;;;;;;;;5006652;28;20407;-81
2023/03/09 06:07:35;;;;;;;1.00;0.70;;;;;;;;;;5009679;28;20037;-79
2023/03/09 06:10:00;;;;;;;2.63;0.70;;;;;;;;;;5009409;28;20426;-77
2023/03/09 06:12:26;;;;;;;1.27;0.60;;;;;;;;;;5008426;28;20064;-79
2023/03/09 06:14:52;;;;;;;1.67;0.50;;;;;;;;;;5006796;28;20018;-77
2023/03/09 06:17:18;;;;;;;3.00;0.70;;;;;;;;;;5016953;28;20470;-81
2023/03/09 06:19:44;;;;;;;1.13;0.50;;;;;;;;;;5009768;28;20426;-79
2023/03/09 06:22:11;;;;;;;2.47;0.60;;;;;;;;;;5004557;28;20029;-81
2023/03/09 06:24:36;;;;;;;0.73;0.33;;;;;;;;;;5013607;28;20034;-80
2023/03/09 06:27:02;;;;;;;1.57;0.57;;;;;;;;;;5010180;28;20030;-81
2023/03/09 06:29:28;;;;;;;3.93;0.50;;;;;;;;;;4998080;28;20497;-78
2023/03/09 06:31:55;;;;;;;0.40;0.40;;;;;;;;;;5007646;28;20334;-80
2023/03/09 06:34:21;;;;;;;0.43;0.40;;;;;;;;;;4999078;28;20419;-80
2023/03/09 06:36:47;;;;;;;0.80;0.40;;;;;;;;;;5007455;28;20029;-79
2023/03/09 06:39:12;;;;;;;1.50;0.43;;;;;;;;;;5009479;28;20041;-79
2023/03/09 06:41:38;;;;;;;3.00;0.70;;;;;;;;;;5006021;28;20042;-78
2023/03/09 06:44:03;;;;;;;2.17;0.60;;;;;;;;;;4997191;28;20118;-78
2023/03/09 06:46:29;;;;;;;0.70;0.33;;;;;;;;;;5005433;28;20113;-79
2023/03/09 06:48:55;;;;;;;1.20;0.50;;;;;;;;;;5009466;28;20033;-79
2023/03/09 06:51:21;;;;;;;0.67;0.50;;;;;;;;;;5002934;28;20041;-80
2023/03/09 06:53:47;;;;;;;1.27;0.38;;;;;;;;;;5009618;28;20066;-80
2023/03/09 06:56:12;;;;;;;0.80;0.40;;;;;;;;;;5009061;28;20161;-79
2023/03/09 06:58:38;;;;;;;0.98;0.25;;;;;;;;;;5009959;28;20556;-79
2023/03/09 07:01:08;;;;;;;0.30;0.30;;;;;;;;;;5007944;28;20352;-80
2023/03/09 07:03:34;;;;;;;0.30;0.30;;;;;;;;;;5003429;28;20299;-80
2023/03/09 07:06:00;;;;;;;2.25;0.40;;;;;;;;;;5007564;28;20417;-82
2023/03/09 07:08:26;;;;;;;2.55;0.47;;;;;;;;;;5002060;28;20030;-79
2023/03/09 07:10:51;;;;;;;0.50;0.30;;;;;;;;;;5005190;28;20028;-76
2023/03/09 07:13:17;;;;;;;0.20;0.20;;;;;;;;;;5003671;28;20021;-76
2023/03/09 07:15:43;;;;;;;0.10;0.10;;;;;;;;;;5000340;28;20505;-78
2023/03/09 07:18:09;;;;;;;1.80;0.52;;;;;;;;;;5005935;28;20046;-80
2023/03/09 07:20:37;;;;;;;0.35;0.35;;;;;;;;;;5004955;28;20037;-77
2023/03/09 07:23:03;;;;;;;1.15;0.30;;;;;;;;;;5004512;28;20470;-76
2023/03/09 07:25:29;;;;;;;1.45;0.45;;;;;;;;;;5011057;28;20137;-80
2023/03/09 07:28:04;;;;;;;0.50;0.38;;;;;;;;;;5011250;28;20501;-78
2023/03/09 07:30:31;;;;;;;0.80;0.30;;;;;;;;;;5008735;28;20034;-78
2023/03/09 07:32:57;;;;;;;1.73;0.45;;;;;;;;;;5012218;28;20030;-78
2023/03/09 07:35:39;;;;;;;0.30;0.25;;;;;;;;;;4992709;28;20307;-77
2023/03/09 07:38:05;;;;;;;2.13;0.55;;;;;;;;;;5013934;28;20028;-80
2023/03/09 07:40:32;;;;;;;1.17;0.32;;;;;;;;;;5007188;28;20050;-81
2023/03/09 07:42:57;;;;;;;1.15;0.30;;;;;;;;;;5008466;28;20030;-80
2023/03/09 07:45:23;;;;;;;0.50;0.28;;;;;;;;;;5006796;28;20026;-77
2023/03/09 07:47:50;;;;;;;0.90;0.30;;;;;;;;;;5006631;28;20032;-79
2023/03/09 07:50:16;;;;;;;0.35;0.17;;;;;;;;;;5000555;28;20377;-77
2023/03/09 07:52:42;;;;;;;0.65;0.50;;;;;;;;;;5005325;28;20041;-81
2023/03/09 07:55:11;;;;;;;0.95;0.60;;;;;;;;;;5011858;28;20025;-80
2023/03/09 07:57:40;;;;;;;0.45;0.45;;;;;;;;;;5008588;28;20030;-78
2023/03/09 08:00:12;;;;;;;1.90;0.57;;;;;;;;;;5002564;28;20026;-79
2023/03/09 08:02:40;;;;;;;3.63;0.30;;;;;;;;;;4999430;28;20088;-80
2023/03/09 08:05:10;;;;;;;0.80;0.35;;;;;;;;;;5008292;28;20105;-80
2023/03/09 08:07:36;;;;;;;2.08;0.60;;;;;;;;;;4998809;28;20040;-80
2023/03/09 08:10:02;;;;;;;0.90;0.30;;;;;;;;;;5008985;28;20113;-78
2023/03/09 08:12:28;;;;;;;1.25;0.50;;;;;;;;;;5005001;28;20041;-82
2023/03/09 08:14:53;;;;;;;0.88;0.45;;;;;;;;;;5008434;28;20107;-78
2023/03/09 08:17:19;;;;;;;2.65;0.35;;;;;;;;;;5014941;28;20025;-81
2023/03/09 08:19:44;;;;;;;0.20;0.20;;;;;;;;;;5005757;28;20121;-81
2023/03/09 08:22:10;;;;;;;0.70;0.30;;;;;;;;;;5005533;28;20040;-81
2023/03/09 08:24:36;;;;;;;0.98;0.40;;;;;;;;;;5004369;28;20030;-80
2023/03/09 08:27:01;;;;;;;1.65;0.40;;;;;;;;;;5008127;28;20098;-81
2023/03/09 08:29:27;;;;;;;0.70;0.50;;;;;;;;;;5000828;28;20053;-78
2023/03/09 08:31:52;;;;;;;0.32;0.22;;;;;;;;;;5007350;28;20038;-82
2023/03/09 08:34:19;;;;;;;0.52;0.32;;;;;;;;;;5010026;28;20025;-80
2023/03/09 08:36:45;;;;;;;0.63;0.45;;;;;;;;;;5005500;28;20517;-80
2023/03/09 08:39:11;;;;;;;1.63;0.60;;;;;;;;;;5003201;28;20048;-80
2023/03/09 08:41:36;;;;;;;1.85;0.40;;;;;;;;;;5005266;28;20030;-80
2023/03/09 08:44:02;;;;;;;0.40;0.40;;;;;;;;;;5008219;28;20535;-80
2023/03/09 08:46:27;;;;;;;0.80;0.50;;;;;;;;;;5002806;28;20548;-76
2023/03/09 08:48:53;;;;;;;0.17;0.17;;;;;;;;;;5005940;28;20029;-78
2023/03/09 08:51:19;;;;;;;0.88;0.60;;;;;;;;;;5005284;28;20287;-80
2023/03/09 08:53:44;;;;;;;0.30;0.30;;;;;;;;;;5003621;28;20029;-81
2023/03/09 08:56:14;;;;;;;0.60;0.38;;;;;;;;;;5004088;28;20033;-78
2023/03/09 08:58:40;;;;;;;0.40;0.30;;;;;;;;;;4986044;28;20450;-81
2023/03/09 09:01:08;;;;;;;1.23;0.60;;;;;;;;;;5008043;28;20121;-79
2023/03/09 09:03:34;;;;;;;0.85;0.40;;;;;;;;;;5004672;28;20123;-78
2023/03/09 09:06:11;;;;;;;1.70;0.50;;;;;;;;;;5005394;28;20026;-79
2023/03/09 09:08:38;;;;;;;0.38;0.30;;;;;;;;;;4999754;28;20601;-82
2023/03/09 09:11:15;;;;;;;0.60;0.40;;;;;;;;;;5019362;28;20030;-80
2023/03/09 09:13:41;;;;;;;0.88;0.43;;;;;;;;;;5001857;28;20030;-80
2023/03/09 09:16:11;;;;;;;0.22;0.22;;;;;;;;;;5001293;28;20041;-78
2023/03/09 09:18:36;;;;;;;1.00;0.32;;;;;;;;;;5000943;28;20040;-80
2023/03/09 09:21:07;;;;;;;2.33;0.60;;;;;;;;;;5010777;28;20104;-83
2023/03/09 09:23:34;;;;;;;1.23;0.43;;;;;;;;;;4992758;28;20030;-79
2023/03/09 09:26:00;;;;;;;0.50;0.50;;;;;;;;;;5001361;28;20053;-81
2023/03/09 09:28:26;;;;;;;0.65;0.38;;;;;;;;;;5003257;28;20429;-81
2023/03/09 09:30:56;;;;;;;2.88;0.30;;;;;;;;;;5009953;28;20072;-79
2023/03/09 09:33:23;;;;;;;0.50;0.30;;;;;;;;;;5007155;28;20951;-78
2023/03/09 09:35:59;;;;;;;0.47;0.30;;;;;;;;;;5004895;28;20031;-80
2023/03/09 09:38:26;;;;;;;2.35;0.40;;;;;;;;;;5005412;28;20064;-80
2023/03/09 09:40:54;;;;;;;0.95;0.30;;;;;;;;;;5005436;28;20049;-81
2023/03/09 09:43:22;;;;;;;0.32;0.30;;;;;;;;;;5007833;28;20025;-83
2023/03/09 09:45:49;;;;;;;1.20;0.55;;;;;;;;;;5006959;28;20030;-79
2023/03/09 09:48:17;;;;;;;0.77;0.30;;;;;;;;;;5006775;28;20456;-81
2023/03/09 09:51:10;;;;;;;0.43;0.40;;;;;;;;;;5005206;28;20032;-80
2023/03/09 09:54:00;;;;;;;1.43;0.40;;;;;;;;;;5003775;28;20030;-80
2023/03/09 09:56:34;;;;;;;0.28;0.28;;;;;;;;;;5004443;28;20030;-81
2023/03/09 09:59:06;;;;;;;0.32;0.22;;;;;;;;;;5007250;28;20183;-81
2023/03/09 10:01:39;;;;;;;0.40;0.40;;;;;;;;;;5007115;28;20065;-82
2023/03/09 10:04:11;;;;;;;1.95;0.30;;;;;;;;;;5009004;28;20121;-81
2023/03/09 10:06:38;;;;;;;7.95;0.82;;;;;;;;;;5004686;28;20084;-82
2023/03/09 10:09:16;;;;;;;0.50;0.50;;;;;;;;;;5004413;28;20092;-82
2023/03/09 10:11:49;;;;;;;0.45;0.40;;;;;;;;;;5003047;28;20468;-83
2023/03/09 10:14:29;;;;;;;5.38;0.57;;;;;;;;;;5012865;28;20112;-81
2023/03/09 10:17:01;;;;;;;1.25;0.73;;;;;;;;;;5007265;28;20022;-83
2023/03/09 10:19:33;;;;;;;1.17;0.65;;;;;;;;;;5006145;28;20048;-81
2023/03/09 10:22:02;;;;;;;0.55;0.30;;;;;;;;;;5004230;28;20033;-81
2023/03/09 10:24:35;;;;;;;0.90;0.40;;;;;;;;;;5002915;28;20030;-82
2023/03/09 10:27:14;;;;;;;0.40;0.30;;;;;;;;;;4997458;28;20030;-80
2023/03/09 10:30:16;;;;;;;0.25;0.25;;;;;;;;;;5001966;28;20471;-82
2023/03/09 10:32:59;;;;;;;;;;;;;;;;;;5006350;28;20064;-79
2023/03/09 10:35:35;;;;;;;2.10;0.60;;;;;;;;;;5004236;28;19917;-82
2023/03/09 10:38:01;;;;;;;2.65;0.65;;;;;;;;;;4993793;28;20080;-81
2023/03/09 10:40:30;;;;;;;0.68;0.40;;;;;;;;;;5006468;28;20069;-79
2023/03/09 10:42:58;;;;;;;0.57;0.52;;;;;;;;;;5005459;28;20027;-79
2023/03/09 10:45:29;;;;;;;0.40;0.40;;;;;;;;;;5006172;28;20125;-78
2023/03/09 10:48:00;;;;;;;1.83;0.70;;;;;;;;;;5001960;28;20080;-80
2023/03/09 10:50:40;;;;;;;4.80;0.60;;;;;;;;;;5001636;28;20049;-80
2023/03/09 10:53:25;;;;;;;2.22;0.60;;;;;;;;;;5000988;28;20053;-79
2023/03/09 10:56:02;;;;;;;0.52;0.50;;;;;;;;;;5001476;28;20026;-82
2023/03/09 10:58:28;;;;;;;1.05;0.68;;;;;;;;;;5002927;28;20029;-79
2023/03/09 11:00:54;;;;;;;1.25;0.82;;;;;;;;;;4999398;28;20022;-82
2023/03/09 11:03:25;;;;;;;0.50;0.47;;;;;;;;;;5006690;28;20056;-77
2023/03/09 11:05:51;;;;;;;2.38;0.50;;;;;;;;;;5002687;28;20422;-80
2023/03/09 11:08:34;;;;;;;1.85;0.50;;;;;;;;;;5011005;28;20049;-81
2023/03/09 11:11:05;;;;;;;0.85;0.63;;;;;;;;;;5003872;28;20030;-80
2023/03/09 11:13:32;;;;;;;3.30;0.80;;;;;;;;;;5003357;28;20022;-80
2023/03/09 11:16:28;;;;;;;3.28;0.90;;;;;;;;;;4997042;28;20029;-82
2023/03/09 11:19:16;;;;;;;1.38;0.70;;;;;;;;;;5016940;28;20426;-79
2023/03/09 11:21:57;;;;;;;2.05;0.70;;;;;;;;;;5009942;28;20034;-81
2023/03/09 11:24:29;;;;;;;1.10;0.50;;;;;;;;;;5013883;28;20030;-83
2023/03/09 11:27:09;;;;;;;3.85;0.90;;;;;;;;;;5008243;28;20037;-80
2023/03/09 11:29:41;;;;;;;1.33;0.50;;;;;;;;;;5006045;28;20026;-83
2023/03/09 11:32:10;;;;;;;7.93;1.00;;;;;;;;;;5009048;28;20038;-82
2023/03/09 11:34:40;;;;;;;1.60;0.65;;;;;;;;;;5007004;28;20026;-80
2023/03/09 11:37:20;;;;;;;1.60;1.30;;;;;;;;;;5005350;28;20109;-80
2023/03/09 11:39:56;;;;;;;1.52;0.80;;;;;;;;;;5005054;28;20053;-81
2023/03/09 11:42:53;;;;;;;0.82;0.60;;;;;;;;;;5005018;28;20053;-85
2023/03/09 11:45:25;;;;;;;0.40;0.40;;;;;;;;;;5006144;28;20512;-82
2023/03/09 11:48:23;;;;;;;2.60;0.65;;;;;;;;;;5012371;28;20040;-80
2023/03/09 11:51:01;;;;;;;1.48;0.60;;;;;;;;;;5011414;28;20121;-79
2023/03/09 11:53:41;;;;;;;0.98;0.50;;;;;;;;;;5022468;28;20029;-84
2023/03/09 11:56:20;;;;;;;2.47;0.80;;;;;;;;;;5010343;28;20041;-80
2023/03/09 11:58:53;;;;;;;1.33;0.50;;;;;;;;;;5009793;28;20045;-79
2023/03/09 12:01:29;;;;;;;1.13;0.93;;;;;;;;;;5004348;28;20565;-81
2023/03/09 12:04:00;;;;;;;0.85;0.63;;;;;;;;;;5009893;28;20026;-80
2023/03/09 12:06:32;;;;;;;0.80;0.65;;;;;;;;;;5004629;28;20033;-83
2023/03/09 12:09:01;;;;;;;1.42;0.40;;;;;;;;;;5008906;28;20033;-80
2023/03/09 12:12:06;;;;;;;1.70;0.63;;;;;;;;;;5010395;28;20029;-81
2023/03/09 12:14:38;;;;;;;4.43;0.85;;;;;;;;;;5012759;28;20032;-84
2023/03/09 12:17:14;;;;;;;2.47;0.77;;;;;;;;;;5007351;28;20044;-82
2023/03/09 12:19:49;;;;;;;2.85;0.60;;;;;;;;;;5013646;28;20048;-81
2023/03/09 12:22:19;;;;;;;2.72;0.90;;;;;;;;;;5011944;28;20054;-81
2023/03/09 12:24:53;;;;;;;4.30;0.98;;;;;;;;;;5005911;28;20034;-81
2023/03/09 12:27:27;;;;;;;1.45;1.08;;;;;;;;;;5006676;28;20435;-80
2023/03/09 12:30:38;;;;;;;1.10;0.60;;;;;;;;;;5007549;28;20037;-80
2023/03/09 12:33:04;;;;;;;3.67;1.17;;;;;;;;;;4994207;28;20150;-81
2023/03/09 12:35:41;;;;;;;3.33;1.00;;;;;;;;;;5012545;28;20515;-81
2023/03/09 12:38:16;;;;;;;4.97;0.93;;;;;;;;;;5009437;28;20033;-79
2023/03/09 12:40:42;;;;;;;1.23;0.73;;;;;;;;;;5011797;28;20056;-81
2023/03/09 12:43:14;;;;;;;1.02;0.85;;;;;;;;;;5011981;28;20034;-82
2023/03/09 12:45:40;;;;;;;;;;;;;;;;;;5010734;28;20026;-83
2023/03/09 12:48:25;;;;;;;2.95;0.93;;;;;;;;;;5012031;28;19970;-80
2023/03/09 12:51:10;;;;;;;3.38;0.90;;;;;;;;;;5012462;28;20425;-81
2023/03/09 12:54:13;;;;;;;2.90;0.90;;;;;;;;;;5005882;28;20021;-80
2023/03/09 12:56:39;;;;;;;2.95;0.80;;;;;;;;;;5004279;28;20021;-81
2023/03/09 12:59:09;;;;;;;1.25;0.60;;;;;;;;;;5007342;28;20052;-82
2023/03/09 13:01:36;;;;;;;3.70;0.90;;;;;;;;;;5005492;28;20057;-79
2023/03/09 13:04:02;;;;;;;2.22;0.68;;;;;;;;;;5003820;28;20022;-79
2023/03/09 13:06:43;;;;;;;1.20;1.00;;;;;;;;;;5005326;28;20026;-80
2023/03/09 13:09:14;;;;;;;1.27;0.68;;;;;;;;;;5010032;28;20053;-80
2023/03/09 13:12:03;;;;;;;2.65;0.73;;;;;;;;;;5010818;28;20133;-80
2023/03/09 13:14:28;;;;;;;2.50;0.70;;;;;;;;;;5010138;28;20017;-82
2023/03/09 13:16:59;;;;;;;1.00;0.50;;;;;;;;;;5006910;28;20032;-81
2023/03/09 13:19:24;;;;;;;1.88;0.80;;;;;;;;;;5003819;28;20644;-79
2023/03/09 13:21:54;;;;;;;2.42;0.95;;;;;;;;;;5001985;28;20410;-83
2023/03/09 13:24:40;;;;;;;1.23;0.50;;;;;;;;;;5008347;28;20026;-84
2023/03/09 13:27:08;;;;;;;1.63;0.60;;;;;;;;;;5007499;28;20041;-76
2023/03/09 13:29:37;;;;;;;2.00;0.70;;;;;;;;;;5007910;28;20041;-81
2023/03/09 13:32:05;;;;;;;1.63;0.70;;;;;;;;;;5006672;28;20504;-83
2023/03/09 13:34:36;;;;;;;2.63;0.70;;;;;;;;;;5007688;28;20382;-81
2023/03/09 13:37:06;;;;;;;2.90;1.15;;;;;;;;;;5001093;28;20136;-82
2023/03/09 13:39:32;;;;;;;1.80;0.82;;;;;;;;;;5007835;28;20117;-84
2023/03/09 13:42:05;;;;;;;5.20;0.70;;;;;;;;;;5004567;28;20033;-82
2023/03/09 13:44:31;;;;;;;3.25;0.70;;;;;;;;;;5010919;28;20382;-81
2023/03/09 13:46:58;;;;;;;2.20;0.52;;;;;;;;;;5005772;28;20041;-79
2023/03/09 13:49:34;;;;;;;2.63;0.82;;;;;;;;;;5003398;28;20026;-81
2023/03/09 13:52:01;;;;;;;3.42;0.70;;;;;;;;;;5002155;28;20101;-82
2023/03/09 13:54:37;;;;;;;1.38;0.80;;;;;;;;;;5008473;28;20018;-81
2023/03/09 13:57:15;;;;;;;11.30;1.50;;;;;;;;;;5005359;28;20529;-81
2023/03/09 13:59:57;;;;;;;1.25;0.60;;;;;;;;;;5006903;28;20212;-82
2023/03/09 14:02:27;;;;;;;;;;;;;;;;;;5002184;28;20572;-83
2023/03/09 14:05:04;;;;;;;6.30;0.80;;;;;;;;;;5005606;28;19953;-79
2023/03/09 14:07:37;;;;;;;2.50;0.47;;;;;;;;;;5010255;28;20032;-80
2023/03/09 14:10:07;;;;;;;1.92;0.70;;;;;;;;;;5009558;28;20427;-82
2023/03/09 14:12:36;;;;;;;1.48;0.70;;;;;;;;;;5010430;28;20034;-80
2023/03/09 14:15:04;;;;;;;3.72;1.10;;;;;;;;;;5008700;28;20075;-82
2023/03/09 14:17:33;;;;;;;2.53;0.50;;;;;;;;;;5009231;28;20026;-83
2023/03/09 14:19:59;;;;;;;2.80;0.70;;;;;;;;;;5006690;28;20081;-80
2023/03/09 14:22:31;;;;;;;0.70;0.60;;;;;;;;;;5002934;28;20070;-82
2023/03/09 14:24:58;;;;;;;2.78;0.60;;;;;;;;;;5011760;28;20030;-82
2023/03/09 14:27:32;;;;;;;1.02;0.50;;;;;;;;;;5010591;28;20397;-82
2023/03/09 14:30:18;;;;;;;0.57;0.30;;;;;;;;;;4995313;28;20045;-81
2023/03/09 14:33:02;;;;;;;2.22;0.40;;;;;;;;;;5005536;28;20136;-81
2023/03/09 14:35:37;;;;;;;3.60;0.73;;;;;;;;;;5005608;28;20084;-82
2023/03/09 14:38:15;;;;;;;0.95;0.38;;;;;;;;;;5000599;28;20029;-82
2023/03/09 14:40:40;;;;;;;1.88;1.02;;;;;;;;;;5008995;28;20054;-80
2023/03/09 14:43:21;;;;;;;2.30;0.80;;;;;;;;;;5010759;28;20010;-80
2023/03/09 14:45:46;;;;;;;0.77;0.40;;;;;;;;;;5011088;28;20052;-82
2023/03/09 14:48:12;;;;;;;1.90;0.50;;;;;;;;;;5011776;28;20030;-81
2023/03/09 14:50:38;;;;;;;2.08;0.50;;;;;;;;;;5014128;28;20033;-81
2023/03/09 14:53:04;;;;;;;0.93;0.35;;;;;;;;;;5010218;28;20425;-80
2023/03/09 14:55:31;;;;;;;0.70;0.50;;;;;;;;;;5011714;28;20022;-83